Bartlett, Illinois
Current Conditions -  °F | °C
As of 5:52 PM on Friday 28 Nov 2014 (Local Time) from KDPA Reporting Station
Broken Clouds Broken Clouds  
Wind Chill: 23°   Ceiling: 2100
Heat Index: 32°   Visibility: 8mi
Dew Point: 27°   Wind: 13mph
Humidity: 82%   Direction: 150°SSE
Pressure: 29.95"   Gusts: NA
Location:  41.99°N, 88.18°W
Report Text: KDPA 282352Z 15011KT 8SM BKN021 00/M03 A2995 RMK AO2 SLP153 T00001028 10000 21028 58009
Loading
Personal Weather Stations






























Interactive Weather Map New forecast layout! Learn more

10-Day Weather Forecast

Advertisements
Track Severe Weather on mobile